Time;durP1;ratioP1;P1;durP2;ratioP2;P2;SDS_P1;SDS_P2;PMS_P1;PMS_P2;Temp;Humidity;BMP_temperature;BMP_pressure;BME280_temperature;BME280_humidity;BME280_pressure;Samples;Min_cycle;Max_cycle;Signal;HPM_P1;HPM_P2
2021/08/27 00:02:06;;;;;;;8.90;6.10;;;;;;;11.22;100.00;95989.13;5078976;28;20028;-78
2021/08/27 00:04:32;;;;;;;11.00;5.53;;;;;;;11.26;100.00;95992.25;5074639;28;20122;-77
2021/08/27 00:06:59;;;;;;;10.47;5.77;;;;;;;11.24;100.00;95981.91;5058980;28;20500;-77
2021/08/27 00:09:25;;;;;;;12.47;6.43;;;;;;;11.36;100.00;95984.97;5072957;28;20405;-77
2021/08/27 00:11:52;;;;;;;10.00;6.43;;;;;;;11.39;100.00;95983.81;5076899;28;20041;-77
2021/08/27 00:14:18;;;;;;;16.10;7.27;;;;;;;11.37;100.00;95989.28;5077302;28;20024;-78
2021/08/27 00:16:44;;;;;;;9.80;5.57;;;;;;;11.37;100.00;95981.38;5071701;28;20528;-77
2021/08/27 00:19:10;;;;;;;11.33;6.00;;;;;;;11.33;100.00;95982.69;5072945;28;20458;-78
2021/08/27 00:21:35;;;;;;;9.57;5.93;;;;;;;11.36;100.00;95992.06;5069442;28;20063;-77
2021/08/27 00:24:03;;;;;;;10.73;6.27;;;;;;;11.41;100.00;95987.13;5068257;28;20032;-78
2021/08/27 00:26:30;;;;;;;8.60;5.80;;;;;;;11.49;100.00;95995.78;5071162;28;20074;-77
2021/08/27 00:28:56;;;;;;;8.70;5.20;;;;;;;11.42;100.00;96000.09;5079905;28;20032;-78
2021/08/27 00:31:22;;;;;;;8.97;5.40;;;;;;;11.41;100.00;95998.47;5072232;28;20040;-78
2021/08/27 00:33:47;;;;;;;11.47;5.63;;;;;;;11.23;100.00;95995.22;5059933;28;20110;-77
2021/08/27 00:36:13;;;;;;;8.57;5.00;;;;;;;11.20;100.00;96003.44;5068153;28;20386;-78
2021/08/27 00:38:39;;;;;;;8.83;4.93;;;;;;;11.13;100.00;95994.59;5076795;28;20063;-77
2021/08/27 00:41:05;;;;;;;9.70;4.93;;;;;;;11.18;100.00;95987.84;5065997;28;20052;-77
2021/08/27 00:43:30;;;;;;;8.47;5.50;;;;;;;11.25;100.00;95993.25;5082062;28;20031;-78
2021/08/27 00:45:56;;;;;;;8.27;4.63;;;;;;;11.20;100.00;95991.13;5070283;28;20066;-77
2021/08/27 00:48:22;;;;;;;8.00;5.67;;;;;;;11.21;100.00;95987.50;5070617;28;20040;-77
2021/08/27 00:50:48;;;;;;;9.93;5.77;;;;;;;11.16;100.00;95989.81;5065046;28;20165;-77
2021/08/27 00:53:14;;;;;;;8.70;5.37;;;;;;;11.12;100.00;95988.50;5057416;28;20020;-78
2021/08/27 00:55:41;;;;;;;7.83;5.50;;;;;;;11.10;100.00;95985.25;5066618;28;20316;-77
2021/08/27 00:58:07;;;;;;;10.60;6.40;;;;;;;11.17;100.00;95986.22;5069435;28;20043;-77
2021/08/27 01:00:34;;;;;;;9.97;5.87;;;;;;;11.20;100.00;95990.28;5075354;28;20024;-77
2021/08/27 01:03:01;;;;;;;9.33;6.00;;;;;;;11.11;100.00;95988.69;5069624;28;20032;-77
2021/08/27 01:05:30;;;;;;;10.07;5.63;;;;;;;11.09;100.00;95988.84;5081291;28;20037;-77
2021/08/27 01:08:04;;;;;;;11.20;6.43;;;;;;;11.13;100.00;95987.50;5069178;28;20107;-77
2021/08/27 01:10:32;;;;;;;9.73;5.07;;;;;;;11.13;100.00;95994.59;5077678;28;20044;-77
2021/08/27 01:13:12;;;;;;;7.80;5.07;;;;;;;11.17;100.00;95990.66;5070518;28;20439;-77
2021/08/27 01:15:55;;;;;;;8.37;4.97;;;;;;;11.23;100.00;95992.59;5067740;28;20223;-77
2021/08/27 01:18:39;;;;;;;10.03;5.33;;;;;;;11.14;100.00;95994.44;5055210;28;20032;-77
2021/08/27 01:21:39;;;;;;;8.57;5.00;;;;;;;11.21;100.00;95998.03;5066457;28;20024;-77
2021/08/27 01:24:07;;;;;;;9.50;4.93;;;;;;;11.17;100.00;95991.47;5079272;28;20033;-77
2021/08/27 01:26:37;;;;;;;8.50;5.07;;;;;;;11.21;100.00;95986.69;5068800;28;20035;-78
2021/08/27 01:29:06;;;;;;;10.17;5.03;;;;;;;11.17;100.00;95990.66;5071266;28;20209;-77
2021/08/27 01:31:46;;;;;;;7.80;4.97;;;;;;;11.16;100.00;95991.63;5074248;28;20502;-77
2021/08/27 01:34:27;;;;;;;10.73;5.50;;;;;;;11.15;100.00;95997.88;5066796;28;20490;-77
2021/08/27 01:36:54;;;;;;;8.97;5.30;;;;;;;11.14;100.00;95986.53;5076467;28;20082;-77
2021/08/27 01:39:25;;;;;;;9.97;5.23;;;;;;;11.15;100.00;95998.72;5072964;28;20025;-77
2021/08/27 01:41:53;;;;;;;13.60;6.20;;;;;;;11.18;100.00;95997.56;5074246;28;20043;-77
2021/08/27 01:44:22;;;;;;;10.93;6.23;;;;;;;11.13;100.00;95999.84;5069266;28;20074;-77
2021/08/27 01:46:50;;;;;;;10.17;5.67;;;;;;;11.14;100.00;95998.88;5068590;28;20040;-77
2021/08/27 01:49:17;;;;;;;10.10;5.77;;;;;;;11.06;100.00;96000.53;5052111;28;20062;-77
2021/08/27 01:51:44;;;;;;;9.60;5.83;;;;;;;11.15;100.00;96000.53;5075654;28;20806;-77
2021/08/27 01:54:11;;;;;;;12.10;6.53;;;;;;;11.13;100.00;95998.03;5049781;28;20048;-77
2021/08/27 01:56:39;;;;;;;10.40;6.20;;;;;;;11.15;100.00;95995.25;5074460;28;20036;-77
2021/08/27 01:59:07;;;;;;;10.47;5.47;;;;;;;11.13;100.00;95999.84;5073933;28;20028;-77
2021/08/27 02:01:35;;;;;;;10.20;6.40;;;;;;;11.16;100.00;95999.53;5055852;28;20119;-77
2021/08/27 02:04:03;;;;;;;11.00;6.70;;;;;;;11.18;100.00;96002.81;5080333;28;20020;-77
2021/08/27 02:06:30;;;;;;;10.70;5.57;;;;;;;11.12;100.00;95998.22;5078176;28;20040;-77
2021/08/27 02:08:58;;;;;;;8.50;5.87;;;;;;;11.12;100.00;95998.22;5075875;28;20035;-77
2021/08/27 02:11:26;;;;;;;10.93;6.07;;;;;;;11.09;100.00;95999.38;5073743;28;20036;-77
2021/08/27 02:13:52;;;;;;;10.30;5.77;;;;;;;11.03;100.00;95994.78;5074815;28;20047;-77
2021/08/27 02:16:18;;;;;;;9.53;6.20;;;;;;;10.95;100.00;95995.63;5071741;28;20035;-77
2021/08/27 02:18:44;;;;;;;8.80;5.73;;;;;;;11.00;100.00;95995.94;5056644;28;20043;-77
2021/08/27 02:21:11;;;;;;;9.40;5.77;;;;;;;10.98;100.00;95990.03;5077930;28;20107;-77
2021/08/27 02:23:40;;;;;;;8.70;5.00;;;;;;;10.97;100.00;95992.84;5068803;28;20031;-77
2021/08/27 02:26:07;;;;;;;7.93;5.17;;;;;;;11.01;100.00;95999.41;5081607;28;20020;-77
2021/08/27 02:28:36;;;;;;;8.17;5.27;;;;;;;11.07;100.00;95994.28;5075005;28;20109;-77
2021/08/27 02:31:02;;;;;;;8.43;4.80;;;;;;;10.97;100.00;95996.28;5077579;28;20016;-77
2021/08/27 02:33:30;;;;;;;7.20;4.37;;;;;;;10.99;100.00;95988.22;5075085;28;20393;-77
2021/08/27 02:35:58;;;;;;;7.90;4.70;;;;;;;10.99;100.00;95990.84;5081936;28;20044;-77
2021/08/27 02:38:28;;;;;;;8.40;4.80;;;;;;;10.98;100.00;95986.59;5070510;28;20111;-77
2021/08/27 02:40:54;;;;;;;7.93;4.50;;;;;;;11.04;100.00;95986.72;5060093;28;20060;-77
2021/08/27 02:43:20;;;;;;;8.07;4.37;;;;;;;10.97;100.00;95985.75;5073397;28;20055;-77
2021/08/27 02:45:46;;;;;;;8.60;4.77;;;;;;;11.00;100.00;95984.59;5070927;28;20028;-77
2021/08/27 02:48:11;;;;;;;8.70;4.77;;;;;;;10.93;100.00;95989.72;5065264;28;20406;-77
2021/08/27 02:51:03;;;;;;;8.77;4.50;;;;;;;11.02;100.00;95975.53;5055330;28;20032;-77
2021/08/27 02:53:32;;;;;;;7.10;4.43;;;;;;;10.91;100.00;95983.78;5082155;28;20039;-77
2021/08/27 02:56:15;;;;;;;7.80;5.03;;;;;;;10.92;100.00;95981.97;5072228;28;20554;-79
2021/08/27 02:58:47;;;;;;;7.10;4.30;;;;;;;10.88;100.00;95986.75;5066478;28;20446;-77
2021/08/27 03:01:18;;;;;;;8.77;4.20;;;;;;;10.79;100.00;95988.56;5070246;28;20037;-77
2021/08/27 03:04:01;;;;;;;7.50;4.00;;;;;;;10.77;100.00;95985.31;5072956;28;20049;-77
2021/08/27 03:06:31;;;;;;;7.67;4.60;;;;;;;10.81;100.00;95980.53;5069764;28;20079;-77
2021/08/27 03:09:03;;;;;;;6.27;3.93;;;;;;;10.78;100.00;95983.50;5072884;28;20101;-77
2021/08/27 03:11:32;;;;;;;10.43;4.23;;;;;;;10.68;100.00;95986.28;5076670;28;20035;-77
2021/08/27 03:14:10;;;;;;;8.33;4.17;;;;;;;10.67;100.00;95983.84;5072208;28;20077;-77
2021/08/27 03:16:39;;;;;;;8.50;4.20;;;;;;;10.68;100.00;95980.22;5062706;28;20074;-77
2021/08/27 03:19:10;;;;;;;7.60;4.37;;;;;;;10.68;100.00;95981.03;5061319;28;20058;-77
2021/08/27 03:21:57;;;;;;;8.23;4.60;;;;;;;10.68;100.00;95969.69;5079885;28;20039;-77
2021/08/27 03:24:30;;;;;;;8.00;4.40;;;;;;;10.64;100.00;95965.75;5074851;28;20083;-77
2021/08/27 03:27:01;;;;;;;7.93;4.60;;;;;;;10.58;100.00;95964.59;5073462;28;20043;-77
2021/08/27 03:29:32;;;;;;;9.63;4.90;;;;;;;10.52;100.00;95963.44;5079659;28;20807;-77
2021/08/27 03:31:59;;;;;;;12.30;5.60;;;;;;;10.47;100.00;95972.84;5055160;28;20032;-77
2021/08/27 03:34:24;;;;;;;9.30;5.53;;;;;;;10.46;100.00;95979.91;5081219;28;20043;-77
2021/08/27 03:36:51;;;;;;;11.97;5.63;;;;;;;10.46;100.00;95973.81;5070287;28;20460;-77
2021/08/27 03:39:18;;;;;;;11.60;6.23;;;;;;;10.43;100.00;95974.13;5079865;28;20043;-78
2021/08/27 03:41:44;;;;;;;9.83;6.43;;;;;;;10.48;100.00;95985.00;5071321;28;20028;-77
2021/08/27 03:44:14;;;;;;;11.90;6.07;;;;;;;10.42;100.00;95986.47;5077171;28;20039;-77
2021/08/27 03:46:40;;;;;;;12.87;6.50;;;;;;;10.44;100.00;95989.75;5051503;28;20024;-77
2021/08/27 03:49:06;;;;;;;12.07;6.57;;;;;;;10.46;100.00;95992.22;5067076;28;20496;-77
2021/08/27 03:51:33;;;;;;;9.93;6.77;;;;;;;10.46;100.00;95993.06;5077918;28;20047;-77
2021/08/27 03:53:59;;;;;;;11.43;7.07;;;;;;;10.51;100.00;96000.44;5073082;28;20043;-77
2021/08/27 03:56:27;;;;;;;14.33;7.67;;;;;;;10.53;100.00;95998.44;5062016;28;20109;-77
2021/08/27 03:58:54;;;;;;;12.97;7.73;;;;;;;10.54;100.00;96000.13;5073379;28;20024;-77
2021/08/27 04:01:21;;;;;;;12.53;7.90;;;;;;;10.58;100.00;96002.22;5076952;28;20037;-77
2021/08/27 04:03:47;;;;;;;13.60;8.27;;;;;;;10.51;100.00;96003.06;5069499;28;20078;-77
2021/08/27 04:06:13;;;;;;;12.23;8.07;;;;;;;10.53;100.00;96003.69;5073110;28;20040;-77
2021/08/27 04:08:41;;;;;;;14.87;9.07;;;;;;;10.59;100.00;96001.25;5068001;28;20021;-77
2021/08/27 04:11:10;;;;;;;14.67;9.30;;;;;;;10.66;100.00;96000.59;5071618;28;20051;-77
2021/08/27 04:13:37;;;;;;;13.63;9.10;;;;;;;10.67;100.00;96003.06;5070090;28;20029;-77
2021/08/27 04:16:03;;;;;;;14.33;9.73;;;;;;;10.68;100.00;95996.81;5074367;28;20024;-77
2021/08/27 04:18:30;;;;;;;16.17;10.53;;;;;;;10.72;100.00;95992.03;5071942;28;20028;-77
2021/08/27 04:20:56;;;;;;;16.97;10.47;;;;;;;10.70;100.00;96004.56;5074311;28;20101;-77
2021/08/27 04:23:24;;;;;;;17.33;10.60;;;;;;;10.72;100.00;96002.56;5074274;28;20440;-77
2021/08/27 04:25:50;;;;;;;17.10;11.17;;;;;;;10.66;100.00;96001.41;5069851;28;20036;-77
2021/08/27 04:28:16;;;;;;;16.07;10.97;;;;;;;10.59;100.00;96003.88;5079791;28;20028;-77
2021/08/27 04:30:42;;;;;;;18.53;10.77;;;;;;;10.66;100.00;96003.22;5051247;28;20025;-77
2021/08/27 04:33:07;;;;;;;19.37;10.03;;;;;;;10.61;100.00;96001.91;5077431;28;20029;-77
2021/08/27 04:35:33;;;;;;;20.13;11.53;;;;;;;10.71;100.00;96000.91;5087042;28;20032;-77
2021/08/27 04:37:59;;;;;;;14.47;9.73;;;;;;;10.72;100.00;96002.56;5058570;28;20034;-77
2021/08/27 04:40:25;;;;;;;16.90;10.50;;;;;;;10.72;100.00;96003.38;5052484;28;20059;-77
2021/08/27 04:42:51;;;;;;;15.60;10.17;;;;;;;10.68;100.00;96002.06;5055532;28;20561;-76
2021/08/27 04:45:17;;;;;;;17.13;10.13;;;;;;;10.72;100.00;96013.91;5071160;28;20040;-77
2021/08/27 04:47:43;;;;;;;14.07;9.67;;;;;;;10.71;100.00;96014.06;5069138;28;20034;-77
2021/08/27 04:50:10;;;;;;;16.33;9.93;;;;;;;10.67;100.00;96010.94;5070897;28;20032;-77
2021/08/27 04:52:37;;;;;;;14.67;10.13;;;;;;;10.74;100.00;96016.38;5054299;28;20062;-77
2021/08/27 04:55:05;;;;;;;14.03;8.93;;;;;;;10.73;100.00;96020.81;5078255;28;20035;-77
2021/08/27 04:57:30;;;;;;;19.60;10.37;;;;;;;10.67;100.00;96020.66;5055583;28;20466;-77
2021/08/27 04:59:56;;;;;;;14.77;9.67;;;;;;;10.85;100.00;96021.28;5076012;28;20095;-77
2021/08/27 05:02:22;;;;;;;16.63;9.50;;;;;;;10.86;100.00;96015.03;5070899;28;20052;-77
2021/08/27 05:04:49;;;;;;;13.97;8.67;;;;;;;10.80;100.00;96028.88;5039280;28;20104;-77
2021/08/27 05:07:15;;;;;;;12.90;8.93;;;;;;;10.87;100.00;96029.03;5052138;28;20429;-77
2021/08/27 05:09:41;;;;;;;15.33;9.37;;;;;;;10.90;100.00;96016.38;5077972;28;20024;-77
2021/08/27 05:12:07;;;;;;;14.73;9.77;;;;;;;10.91;100.00;96020.63;5074476;28;20638;-77
2021/08/27 05:14:33;;;;;;;13.67;9.77;;;;;;;10.89;100.00;96030.47;5076145;28;21389;-77
2021/08/27 05:16:58;;;;;;;16.73;10.00;;;;;;;10.99;100.00;96020.59;5066678;28;20028;-77
2021/08/27 05:19:24;;;;;;;12.13;8.67;;;;;;;10.95;100.00;96032.47;5070105;28;20033;-77
2021/08/27 05:21:50;;;;;;;17.00;9.00;;;;;;;10.90;100.00;96033.94;5055246;28;20733;-77
2021/08/27 05:24:15;;;;;;;12.90;8.83;;;;;;;10.88;100.00;96031.47;5070334;28;20068;-77
2021/08/27 05:26:41;;;;;;;12.60;9.47;;;;;;;10.92;100.00;96035.41;5071362;28;20032;-77
2021/08/27 05:29:07;;;;;;;15.97;10.47;;;;;;;10.96;100.00;96025.38;5048060;28;20047;-77
2021/08/27 05:31:33;;;;;;;13.13;9.27;;;;;;;11.01;100.00;96033.59;5064656;28;20033;-78
2021/08/27 05:33:59;;;;;;;13.83;9.00;;;;;;;11.02;100.00;96036.06;5063554;28;20024;-77
2021/08/27 05:36:26;;;;;;;13.80;8.87;;;;;;;11.00;100.00;96035.44;5061571;28;20025;-77
2021/08/27 05:38:52;;;;;;;10.97;7.87;;;;;;;11.02;100.00;96036.06;5075774;28;20031;-77
2021/08/27 05:41:18;;;;;;;14.50;8.70;;;;;;;11.08;100.00;96032.78;5052383;28;20028;-77
2021/08/27 05:43:43;;;;;;;11.57;7.87;;;;;;;11.21;100.00;96039.34;5056514;28;20035;-77
2021/08/27 05:46:10;;;;;;;11.77;7.33;;;;;;;11.24;100.00;96039.81;5070514;28;20040;-78
2021/08/27 05:48:36;;;;;;;9.33;6.50;;;;;;;11.43;100.00;96050.94;5080057;28;20086;-77
2021/08/27 05:51:02;;;;;;;12.47;6.77;;;;;;;11.48;100.00;96049.47;5064483;28;20040;-77
2021/08/27 05:53:27;;;;;;;9.93;5.73;;;;;;;11.56;100.00;96054.69;5054497;28;20559;-78
2021/08/27 05:55:53;;;;;;;13.17;6.33;;;;;;;11.46;100.00;96053.25;5055337;28;20024;-78
2021/08/27 05:58:20;;;;;;;14.73;7.43;;;;;;;11.43;100.00;96054.41;5075866;28;20418;-78
2021/08/27 06:00:46;;;;;;;11.30;7.77;;;;;;;11.58;100.00;96051.91;5062648;28;20119;-77
2021/08/27 06:03:12;;;;;;;10.47;6.33;;;;;;;11.46;100.00;96053.25;5071759;28;20530;-77
2021/08/27 06:05:38;;;;;;;13.33;7.33;;;;;;;11.38;100.00;96048.84;5071390;28;20035;-78
2021/08/27 06:08:04;;;;;;;10.23;6.20;;;;;;;11.94;100.00;96043.56;5070208;28;20032;-77
2021/08/27 06:10:30;;;;;;;11.40;7.37;;;;;;;12.48;100.00;96049.66;5068351;28;21214;-77
2021/08/27 06:12:56;;;;;;;9.43;6.47;;;;;;;12.58;100.00;96051.25;5071977;28;20027;-76
2021/08/27 06:15:21;;;;;;;9.63;6.20;;;;;;;12.44;100.00;96048.38;5072673;28;20128;-77
2021/08/27 06:17:47;;;;;;;9.97;5.90;;;;;;;12.12;100.00;96053.84;5049655;28;20109;-78
2021/08/27 06:20:13;;;;;;;9.93;6.23;;;;;;;12.11;100.00;96049.56;5065363;28;20051;-77
2021/08/27 06:22:39;;;;;;;12.40;7.67;;;;;;;12.11;100.00;96052.22;5067369;28;20039;-77
2021/08/27 06:25:05;;;;;;;8.83;5.60;;;;;;;11.94;100.00;96054.91;5070071;28;20016;-76
2021/08/27 06:27:31;;;;;;;9.97;6.17;;;;;;;12.14;100.00;96057.09;5072046;28;20041;-77
2021/08/27 06:29:58;;;;;;;9.07;5.63;;;;;;;12.50;100.00;96055.56;5072408;28;20077;-77
2021/08/27 06:32:25;;;;;;;9.70;5.77;;;;;;;12.36;100.00;96060.78;5066765;28;20111;-77
2021/08/27 06:34:51;;;;;;;7.90;5.23;;;;;;;12.40;100.00;96062.88;5078417;28;20024;-77
2021/08/27 06:37:17;;;;;;;8.87;6.20;;;;;;;12.50;100.00;96067.94;5052766;28;20062;-77
2021/08/27 06:39:42;;;;;;;11.50;5.73;;;;;;;12.37;100.00;96065.06;5069260;28;20024;-76
2021/08/27 06:42:08;;;;;;;13.20;6.47;;;;;;;12.58;100.00;96061.81;5063777;28;20103;-77
2021/08/27 06:44:40;;;;;;;11.03;6.67;;;;;;;12.77;100.00;96065.78;5075336;28;20097;-79
2021/08/27 06:47:07;;;;;;;10.53;6.23;;;;;;;12.56;100.00;96066.44;5051320;28;20043;-77
2021/08/27 06:49:33;;;;;;;9.37;5.40;;;;;;;12.53;100.00;96069.41;5068254;28;20024;-77
2021/08/27 06:51:59;;;;;;;9.87;5.63;;;;;;;12.42;100.00;96071.47;5067047;28;20063;-77
2021/08/27 06:54:24;;;;;;;8.57;5.10;;;;;;;12.46;100.00;96075.38;5051789;28;20089;-77
2021/08/27 06:56:50;;;;;;;13.17;9.23;;;;;;;12.37;100.00;96088.78;5072811;28;20040;-77
2021/08/27 06:59:16;;;;;;;9.03;6.33;;;;;;;12.52;100.00;96080.97;5062745;28;20070;-77
2021/08/27 07:01:41;;;;;;;9.90;5.40;;;;;;;12.59;100.00;96084.53;5078134;28;20442;-77
2021/08/27 07:04:07;;;;;;;10.03;6.00;;;;;;;12.70;100.00;96079.66;5068655;28;20040;-77
2021/08/27 07:06:33;;;;;;;9.03;6.00;;;;;;;14.31;100.00;96073.06;5073028;28;20032;-77
2021/08/27 07:08:59;;;;;;;8.87;5.07;;;;;;;15.19;93.14;96077.22;5057211;28;20016;-77
2021/08/27 07:11:24;;;;;;;8.33;4.73;;;;;;;16.35;87.54;96071.38;5070520;28;20521;-77
2021/08/27 07:13:50;;;;;;;8.67;4.50;;;;;;;15.59;89.93;96074.84;5070704;28;20034;-77
2021/08/27 07:16:16;;;;;;;9.13;4.17;;;;;;;14.53;93.05;96089.84;5062286;28;20440;-77
2021/08/27 07:18:43;;;;;;;8.20;4.50;;;;;;;14.07;94.53;96088.25;5070669;28;20024;-77
2021/08/27 07:21:09;;;;;;;9.37;4.67;;;;;;;13.44;97.88;96100.19;5068587;28;20032;-77
2021/08/27 07:23:36;;;;;;;8.87;4.63;;;;;;;14.04;97.00;96095.75;5068873;28;20031;-76
2021/08/27 07:26:02;;;;;;;11.37;4.67;;;;;;;14.34;96.35;96089.38;5069075;28;20798;-79
2021/08/27 07:28:28;;;;;;;9.90;4.57;;;;;;;14.14;96.39;96094.44;5078722;28;20052;-77
2021/08/27 07:30:53;;;;;;;13.80;6.73;;;;;;;14.31;93.53;96095.06;5052704;28;20043;-77
2021/08/27 07:33:19;;;;;;;7.23;3.43;;;;;;;15.46;85.73;96085.34;5068750;28;20041;-77
2021/08/27 07:35:45;;;;;;;8.23;3.93;;;;;;;16.73;81.93;96074.31;5066838;28;20059;-77
2021/08/27 07:38:11;;;;;;;7.13;3.45;;;;;;;17.65;77.21;96070.88;5072686;28;20823;-77
2021/08/27 07:40:37;;;;;;;6.00;3.05;;;;;;;16.81;81.35;96081.31;5053128;28;20377;-77
2021/08/27 07:43:03;;;;;;;6.78;3.05;;;;;;;15.41;83.14;96090.44;5072885;28;20035;-77
2021/08/27 07:45:29;;;;;;;8.23;2.90;;;;;;;16.73;79.31;96083.13;5061850;28;20187;-78
2021/08/27 07:47:55;;;;;;;4.88;2.40;;;;;;;15.84;79.52;96083.19;5066216;28;20051;-77
2021/08/27 07:50:21;;;;;;;3.40;1.85;;;;;;;17.32;75.13;96081.56;5070653;28;20392;-77
2021/08/27 07:52:46;;;;;;;5.13;2.35;;;;;;;17.25;76.35;96082.59;5050956;28;20024;-78
2021/08/27 07:55:12;;;;;;;4.30;1.90;;;;;;;18.06;73.29;96087.59;5053264;28;20035;-78
2021/08/27 07:57:43;;;;;;;5.47;2.42;;;;;;;18.59;68.67;96076.72;5069874;28;20023;-78
2021/08/27 08:00:10;;;;;;;10.57;2.58;;;;;;;18.95;66.14;96085.97;5067769;28;20032;-77
2021/08/27 08:02:35;;;;;;;5.05;1.92;;;;;;;19.06;63.50;96070.09;5069453;28;20040;-77
2021/08/27 08:05:01;;;;;;;3.85;1.80;;;;;;;19.49;62.01;96074.69;5051408;28;20037;-77
2021/08/27 08:07:27;;;;;;;5.15;1.95;;;;;;;19.19;62.52;96079.03;5073351;28;20093;-77
2021/08/27 08:09:53;;;;;;;4.22;1.50;;;;;;;20.26;59.39;96085.00;5066746;28;20033;-77
2021/08/27 08:12:18;;;;;;;3.40;1.40;;;;;;;17.80;63.98;96091.94;5069377;28;20032;-77
2021/08/27 08:14:44;;;;;;;4.18;1.42;;;;;;;17.29;66.79;96089.13;5058041;28;20035;-77
2021/08/27 08:17:10;;;;;;;2.60;1.30;;;;;;;18.69;63.20;96084.25;5073241;28;20035;-77
2021/08/27 08:19:35;;;;;;;3.88;1.55;;;;;;;19.24;63.05;96082.66;5069315;28;20032;-79
2021/08/27 08:22:03;;;;;;;2.25;1.30;;;;;;;18.94;61.81;96082.47;5068888;28;20729;-78
2021/08/27 08:24:29;;;;;;;5.63;1.67;;;;;;;18.95;62.01;96078.00;5076340;28;20008;-78
2021/08/27 08:26:55;;;;;;;4.20;1.58;;;;;;;18.31;62.50;96085.88;5084063;28;20089;-78
2021/08/27 08:29:21;;;;;;;5.45;1.70;;;;;;;17.64;68.43;96097.69;5056982;28;20048;-78
2021/08/27 08:31:47;;;;;;;4.50;1.60;;;;;;;17.19;67.78;96092.19;5071493;28;20036;-78
2021/08/27 08:34:13;;;;;;;4.63;1.83;;;;;;;17.84;66.54;96095.00;5059442;28;20036;-77
2021/08/27 08:36:39;;;;;;;7.43;1.83;;;;;;;17.97;64.87;96091.50;5085365;28;20024;-78
2021/08/27 08:39:05;;;;;;;4.68;1.92;;;;;;;18.56;64.20;96087.81;5058171;28;20036;-78
2021/08/27 08:41:31;;;;;;;4.53;1.80;;;;;;;18.60;61.75;96097.00;5057942;28;20098;-78
2021/08/27 08:43:57;;;;;;;2.97;1.60;;;;;;;19.48;57.96;96091.72;5064163;28;20040;-78
2021/08/27 08:46:23;;;;;;;4.68;1.88;;;;;;;20.39;56.49;96084.84;5063106;28;20043;-77
2021/08/27 08:48:51;;;;;;;3.25;1.25;;;;;;;19.91;56.80;96093.56;5077987;28;20040;-77
2021/08/27 08:51:22;;;;;;;3.85;1.08;;;;;;;18.59;63.62;96101.50;5046100;28;20406;-78
2021/08/27 08:53:49;;;;;;;5.80;2.35;;;;;;;17.77;64.92;96102.19;5072970;28;20027;-76
2021/08/27 08:56:17;;;;;;;2.67;1.45;;;;;;;17.31;66.45;96109.16;5069282;28;20029;-78
2021/08/27 08:58:44;;;;;;;5.05;1.50;;;;;;;17.29;65.10;96108.53;5066278;28;20583;-77
2021/08/27 09:01:13;;;;;;;7.63;4.20;;;;;;;18.40;62.76;96099.75;5064113;28;20031;-78
2021/08/27 09:03:38;;;;;;;5.93;3.28;;;;;;;18.48;63.45;96102.19;5068721;28;20043;-78
2021/08/27 09:06:06;;;;;;;5.60;2.10;;;;;;;17.15;66.81;96105.06;5044828;28;20124;-78
2021/08/27 09:08:34;;;;;;;8.48;2.03;;;;;;;16.69;69.55;96105.75;5072883;28;20093;-78
2021/08/27 09:11:00;;;;;;;6.40;1.90;;;;;;;16.84;70.50;96107.50;5049963;28;20029;-78
2021/08/27 09:13:36;;;;;;;5.25;1.92;;;;;;;17.65;67.13;96116.09;5066788;28;20033;-79
2021/08/27 09:16:06;;;;;;;3.22;1.33;;;;;;;17.25;67.69;96112.63;5049927;28;20028;-79
2021/08/27 09:18:37;;;;;;;2.80;1.25;;;;;;;16.89;68.18;96115.66;5069660;28;20500;-78
2021/08/27 09:21:32;;;;;;;2.45;1.10;;;;;;;16.26;70.33;96114.00;5052513;28;20032;-79
2021/08/27 09:24:26;;;;;;;4.07;1.55;;;;;;;16.59;68.55;96117.78;5065934;28;20028;-77
2021/08/27 09:26:55;;;;;;;4.13;1.63;;;;;;;16.14;71.86;96123.53;5061864;28;20049;-78
2021/08/27 09:29:41;;;;;;;4.80;1.60;;;;;;;16.13;71.38;96123.72;5066758;28;20404;-78
2021/08/27 09:32:28;;;;;;;6.30;1.42;;;;;;;15.75;73.11;96124.94;5062084;28;20031;-78
2021/08/27 09:35:16;;;;;;;4.85;1.10;;;;;;;15.58;74.07;96128.88;5057382;28;20123;-78
2021/08/27 09:37:46;;;;;;;2.33;1.20;;;;;;;15.33;76.11;96121.34;5064906;28;20024;-78
2021/08/27 09:40:15;;;;;;;5.28;1.75;;;;;;;15.41;78.06;96131.00;5055705;28;20567;-78
2021/08/27 09:42:43;;;;;;;9.05;1.70;;;;;;;15.39;76.75;96133.03;5068048;28;20402;-78
2021/08/27 09:45:10;;;;;;;5.78;3.28;;;;;;;15.35;80.78;96138.88;5067798;28;20866;-78
2021/08/27 09:47:37;;;;;;;8.70;2.28;;;;;;;15.37;80.83;96135.03;5062195;28;20090;-78
2021/08/27 09:50:24;;;;;;;4.18;1.48;;;;;;;15.04;76.59;96134.75;5072283;28;20452;-78
2021/08/27 09:52:58;;;;;;;3.00;1.15;;;;;;;14.89;77.66;96139.25;5067197;28;20031;-78
2021/08/27 09:55:26;;;;;;;4.80;1.45;;;;;;;14.97;76.63;96141.81;5067858;28;20438;-78
2021/08/27 09:58:00;;;;;;;5.10;1.52;;;;;;;14.98;76.81;96143.44;5073672;28;20095;-78
2021/08/27 10:00:25;;;;;;;6.65;1.27;;;;;;;15.49;74.52;96148.56;5050305;28;20032;-78
2021/08/27 10:02:51;;;;;;;3.25;1.40;;;;;;;15.65;76.02;96143.00;5069391;28;20550;-78
2021/08/27 10:05:17;;;;;;;3.22;1.30;;;;;;;15.48;75.48;96139.00;5062349;28;20028;-79
2021/08/27 10:07:43;;;;;;;4.70;1.27;;;;;;;15.84;74.83;96146.03;5069064;28;20097;-78
2021/08/27 10:10:11;;;;;;;5.97;1.80;;;;;;;15.50;76.19;96152.88;5070806;28;20039;-79
2021/08/27 10:12:39;;;;;;;4.60;1.35;;;;;;;15.53;77.81;96152.50;5069754;28;20035;-79
2021/08/27 10:15:09;;;;;;;3.47;1.40;;;;;;;15.46;81.51;96147.16;5075727;28;20792;-78
2021/08/27 10:17:37;;;;;;;7.88;1.73;;;;;;;14.90;85.36;96146.22;5050944;28;20029;-78
2021/08/27 10:20:05;;;;;;;8.65;1.63;;;;;;;15.00;89.16;96146.72;5075994;28;20028;-78
2021/08/27 10:22:31;;;;;;;5.45;1.70;;;;;;;14.85;89.05;96144.97;5076109;28;20062;-78
2021/08/27 10:24:57;;;;;;;6.03;1.75;;;;;;;14.76;89.56;96146.09;5079567;28;20036;-78
2021/08/27 10:27:23;;;;;;;5.20;2.05;;;;;;;14.67;90.84;96141.91;5052190;28;20032;-78
2021/08/27 10:29:52;;;;;;;5.63;1.83;;;;;;;14.33;94.35;96150.44;5054189;28;20031;-78
2021/08/27 10:32:40;;;;;;;3.70;1.80;;;;;;;14.25;96.57;96148.72;5076062;28;20485;-77
2021/08/27 10:35:29;;;;;;;4.43;1.70;;;;;;;14.19;96.13;96144.16;5074031;28;20036;-78
2021/08/27 10:37:54;;;;;;;3.88;2.00;;;;;;;14.18;97.44;96142.50;5052052;28;20102;-78
2021/08/27 10:40:26;;;;;;;5.22;2.08;;;;;;;13.99;95.92;96143.06;5048629;28;20548;-78
2021/08/27 10:42:54;;;;;;;3.75;1.60;;;;;;;14.22;96.84;96142.94;5077060;28;20069;-78
2021/08/27 10:45:32;;;;;;;3.60;1.45;;;;;;;14.36;96.74;96139.50;5063685;28;20028;-77
2021/08/27 10:48:14;;;;;;;4.63;1.85;;;;;;;14.75;95.58;96143.59;5078874;28;20737;-78
2021/08/27 10:50:42;;;;;;;5.90;2.00;;;;;;;14.78;93.04;96143.22;5069165;28;20068;-78
2021/08/27 10:53:35;;;;;;;5.68;1.67;;;;;;;14.98;93.58;96138.16;5068465;28;20028;-78
2021/08/27 10:56:29;;;;;;;4.35;2.17;;;;;;;15.76;90.09;96137.19;5059282;28;20033;-78
2021/08/27 10:58:55;;;;;;;4.72;2.00;;;;;;;16.07;84.31;96122.69;5066351;28;20441;-78
2021/08/27 11:01:28;;;;;;;3.85;2.10;;;;;;;16.43;85.86;96122.44;5076041;28;20029;-78
2021/08/27 11:04:20;;;;;;;8.13;1.80;;;;;;;16.52;84.07;96123.06;5075833;28;20073;-79
2021/08/27 11:06:48;;;;;;;7.30;1.65;;;;;;;16.24;83.55;96123.19;5055399;28;20086;-78
2021/08/27 11:09:19;;;;;;;6.35;1.80;;;;;;;16.41;82.90;96123.66;5074478;28;20036;-78
2021/08/27 11:11:46;;;;;;;3.85;1.48;;;;;;;16.40;83.45;96122.03;5085071;28;20038;-78
2021/08/27 11:14:20;;;;;;;5.68;1.70;;;;;;;16.26;83.83;96119.31;5062633;28;20024;-78
2021/08/27 11:16:57;;;;;;;5.13;2.03;;;;;;;16.60;85.35;96116.75;5048151;28;20028;-78
2021/08/27 11:19:29;;;;;;;6.90;2.10;;;;;;;16.59;82.78;96120.44;5076586;28;20028;-78
2021/08/27 11:22:10;;;;;;;7.57;1.88;;;;;;;17.25;82.75;96119.78;5066972;28;20058;-78
2021/08/27 11:24:37;;;;;;;5.32;1.75;;;;;;;17.12;78.10;96121.41;5061675;28;20044;-77
2021/08/27 11:27:08;;;;;;;6.10;1.92;;;;;;;18.68;72.52;96119.91;5068222;28;20111;-77
2021/08/27 11:29:39;;;;;;;5.10;1.85;;;;;;;20.04;71.27;96108.66;5057938;28;20044;-78
2021/08/27 11:32:09;;;;;;;7.40;2.15;;;;;;;19.62;64.94;96115.63;5048827;28;20041;-78